Time;durP1;ratioP1;P1;durP2;ratioP2;P2;SDS_P1;SDS_P2;PMS_P1;PMS_P2;Temp;Humidity;BMP_temperature;BMP_pressure;BME280_temperature;BME280_humidity;BME280_pressure;Samples;Min_cycle;Max_cycle;Signal;HPM_P1;HPM_P2
2022/05/18 00:02:49;;;;;;;2.60;1.58;;;16.50;99.90;;;;;;10295848;28;20049;-57
2022/05/18 00:07:51;;;;;;;4.03;1.25;;;16.40;99.90;;;;;;10310097;28;20053;-57
2022/05/18 00:12:53;;;;;;;3.40;1.35;;;16.40;99.90;;;;;;10308997;28;20058;-58
2022/05/18 00:17:55;;;;;;;2.65;1.45;;;16.30;99.90;;;;;;10309785;28;20050;-57
2022/05/18 00:23:01;;;;;;;3.67;1.52;;;16.30;99.90;;;;;;10311197;28;20050;-58
2022/05/18 00:28:03;;;;;;;5.68;1.40;;;16.20;99.90;;;;;;10293406;28;20052;-56
2022/05/18 00:33:07;;;;;;;1.85;1.38;;;16.10;99.90;;;;;;10310781;28;20043;-59
2022/05/18 00:38:09;;;;;;;4.13;1.30;;;16.10;99.90;;;;;;10309502;28;20050;-58
2022/05/18 00:43:34;;;;;;;3.55;1.50;;;16.00;99.90;;;;;;10308794;28;20058;-56
2022/05/18 00:48:37;;;;;;;5.30;1.60;;;16.00;99.90;;;;;;10308782;28;20564;-58
2022/05/18 00:53:50;;;;;;;1.92;1.00;;;16.00;99.90;;;;;;10308318;28;20046;-57
2022/05/18 00:59:00;;;;;;;4.10;1.40;;;15.90;99.90;;;;;;10308903;28;20050;-56
2022/05/18 01:04:03;;;;;;;3.38;1.20;;;15.90;99.90;;;;;;10307794;28;20042;-58
2022/05/18 01:09:28;;;;;;;2.72;1.30;;;15.80;99.90;;;;;;10291063;28;20112;-57
2022/05/18 01:14:34;;;;;;;5.22;1.85;;;15.70;99.90;;;;;;10308371;28;20043;-59
2022/05/18 01:19:39;;;;;;;3.28;1.70;;;15.70;99.90;;;;;;10306884;28;20053;-59
2022/05/18 01:25:00;;;;;;;3.65;1.42;;;15.60;99.90;;;;;;10292021;28;20487;-59
2022/05/18 01:30:04;;;;;;;4.18;1.50;;;15.50;99.90;;;;;;10288834;28;20065;-57
2022/05/18 01:35:09;;;;;;;4.80;1.60;;;15.40;99.90;;;;;;10306402;28;20132;-57
2022/05/18 01:40:38;;;;;;;5.07;1.15;;;15.50;99.90;;;;;;10307124;28;20100;-57
2022/05/18 01:45:40;;;;;;;3.45;0.98;;;15.40;99.90;;;;;;10305968;28;20073;-57
2022/05/18 01:50:43;;;;;;;1.92;1.13;;;15.30;99.90;;;;;;10304489;28;20042;-57
2022/05/18 01:55:46;;;;;;;6.72;1.85;;;15.20;99.90;;;;;;10306774;28;20054;-57
2022/05/18 02:00:48;;;;;;;6.35;1.58;;;15.10;99.90;;;;;;10306323;28;20046;-58
2022/05/18 02:05:52;;;;;;;3.60;1.10;;;15.20;99.90;;;;;;10306558;28;20145;-56
2022/05/18 02:10:54;;;;;;;2.58;1.42;;;15.10;99.90;;;;;;10307306;28;20062;-58
2022/05/18 02:15:55;;;;;;;5.88;1.45;;;15.20;99.90;;;;;;10293160;28;20109;-59
2022/05/18 02:20:57;;;;;;;3.38;1.27;;;15.10;99.90;;;;;;10306402;28;20097;-58
2022/05/18 02:26:08;;;;;;;3.92;1.52;;;15.10;99.90;;;;;;10303226;28;20093;-58
2022/05/18 02:31:11;;;;;;;7.88;1.83;;;15.00;99.90;;;;;;10307169;28;20625;-58
2022/05/18 02:36:13;;;;;;;3.78;1.25;;;14.90;99.90;;;;;;10311793;28;20053;-58
2022/05/18 02:41:15;;;;;;;6.75;1.50;;;14.90;99.90;;;;;;10314904;28;20043;-58
2022/05/18 02:46:20;;;;;;;3.00;1.30;;;14.90;99.90;;;;;;10312910;28;20050;-57
2022/05/18 02:51:22;;;;;;;5.97;1.45;;;14.90;99.90;;;;;;10315331;28;20066;-57
2022/05/18 02:56:26;;;;;;;3.28;1.65;;;14.90;99.90;;;;;;10294475;28;20050;-58
2022/05/18 03:01:28;;;;;;;4.35;1.10;;;14.80;99.90;;;;;;10312998;28;20077;-57
2022/05/18 03:06:30;;;;;;;3.53;1.45;;;14.70;99.90;;;;;;10296747;28;20705;-56
2022/05/18 03:11:32;;;;;;;6.40;1.42;;;14.70;99.90;;;;;;10305548;28;20054;-57
2022/05/18 03:16:34;;;;;;;2.83;1.13;;;14.60;99.90;;;;;;10309325;28;20774;-57
2022/05/18 03:26:59;;;;;;;4.95;1.52;;;14.60;99.90;;;;;;10309124;28;20133;-58
2022/05/18 03:32:01;;;;;;;3.42;1.85;;;14.60;99.90;;;;;;10279044;28;20559;-59
2022/05/18 03:37:03;;;;;;;4.28;1.63;;;14.50;99.90;;;;;;10311828;28;20046;-60
2022/05/18 03:42:06;;;;;;;4.93;1.83;;;14.50;99.90;;;;;;10309672;28;20097;-60
2022/05/18 03:47:09;;;;;;;3.80;1.65;;;14.40;99.90;;;;;;10311044;28;20077;-60
2022/05/18 03:52:11;;;;;;;3.55;1.45;;;14.50;99.90;;;;;;10311849;28;20050;-60
2022/05/18 03:57:13;;;;;;;4.22;1.55;;;14.50;99.90;;;;;;10309085;28;20105;-60
2022/05/18 04:02:14;;;;;;;6.93;1.70;;;14.60;99.90;;;;;;10312600;28;20038;-60
2022/05/18 04:12:31;;;;;;;2.72;1.90;;;14.60;99.90;;;;;;10345505;28;20099;-60
2022/05/18 04:17:33;;;;;;;6.97;2.08;;;14.60;99.90;;;;;;10348769;28;20093;-60
2022/05/18 04:22:36;;;;;;;3.88;2.08;;;14.60;99.90;;;;;;10331278;28;20037;-59
2022/05/18 04:27:38;;;;;;;6.07;2.45;;;14.70;99.90;;;;;;10350866;28;20372;-59
2022/05/18 04:32:40;;;;;;;7.55;2.03;;;14.70;99.90;;;;;;10348518;28;20049;-59
2022/05/18 04:37:42;;;;;;;3.28;1.67;;;14.80;99.90;;;;;;10347896;28;20050;-59
2022/05/18 04:42:44;;;;;;;4.90;2.40;;;14.80;99.90;;;;;;10349291;28;20060;-59
2022/05/18 04:47:46;;;;;;;7.72;2.10;;;14.80;99.90;;;;;;10349405;28;20061;-60
2022/05/18 04:52:48;;;;;;;4.10;2.45;;;14.80;99.90;;;;;;10343945;28;20057;-59
2022/05/18 04:57:49;;;;;;;5.60;2.65;;;14.90;99.90;;;;;;10347821;28;20440;-59
2022/05/18 05:02:56;;;;;;;8.02;2.78;;;15.00;99.90;;;;;;10348525;28;20559;-59
2022/05/18 05:07:58;;;;;;;9.65;3.30;;;15.20;99.90;;;;;;10324051;28;20060;-60
2022/05/18 05:13:00;;;;;;;5.50;3.05;;;15.30;99.90;;;;;;10347036;28;20700;-60
2022/05/18 05:18:02;;;;;;;6.30;2.90;;;15.50;99.90;;;;;;10346578;28;20451;-60
2022/05/18 05:23:04;;;;;;;5.10;2.63;;;15.60;99.90;;;;;;10345177;28;20112;-59
2022/05/18 05:28:09;;;;;;;11.88;4.20;;;15.80;99.90;;;;;;10343516;28;20664;-59
2022/05/18 05:33:11;;;;;;;7.20;3.20;;;15.90;99.90;;;;;;10343513;28;20061;-59
2022/05/18 05:38:13;;;;;;;13.98;3.08;;;16.10;99.90;;;;;;10341835;28;20061;-59
2022/05/18 05:43:14;;;;;;;9.15;3.88;;;16.30;99.90;;;;;;10339714;28;20068;-59
2022/05/18 05:48:16;;;;;;;12.43;4.93;;;16.50;99.90;;;;;;10324081;28;20053;-59
2022/05/18 05:53:18;;;;;;;11.75;4.13;;;16.70;99.90;;;;;;10343411;28;20108;-59
2022/05/18 05:58:22;;;;;;;8.40;3.67;;;16.90;99.90;;;;;;10346103;28;20092;-59
2022/05/18 06:03:23;;;;;;;7.97;2.90;;;17.10;99.90;;;;;;10330710;28;20046;-59
2022/05/18 06:08:25;;;;;;;7.65;2.53;;;17.30;99.90;;;;;;10345479;28;20439;-59
2022/05/18 06:13:29;;;;;;;5.35;2.40;;;17.50;99.90;;;;;;10354527;28;20046;-58
2022/05/18 06:18:30;;;;;;;4.82;2.40;;;17.70;99.90;;;;;;10354621;28;20088;-57
2022/05/18 06:23:32;;;;;;;5.55;2.78;;;18.00;99.90;;;;;;10355002;28;20086;-58
2022/05/18 06:28:40;;;;;;;4.90;2.22;;;18.20;99.90;;;;;;10352765;28;20473;-58
2022/05/18 06:33:42;;;;;;;9.75;2.70;;;18.30;99.90;;;;;;10353412;28;20046;-59
2022/05/18 06:38:43;;;;;;;5.53;2.05;;;18.50;99.90;;;;;;10354127;28;20050;-58
2022/05/18 06:43:45;;;;;;;3.30;2.30;;;18.70;99.90;;;;;;10353317;28;20054;-58
2022/05/18 06:48:48;;;;;;;4.18;2.33;;;18.90;99.90;;;;;;10351587;28;20054;-58
2022/05/18 06:53:53;;;;;;;3.95;2.08;;;19.10;99.90;;;;;;10353555;28;20088;-58
2022/05/18 06:58:55;;;;;;;7.25;2.53;;;19.30;99.90;;;;;;10354559;28;20049;-58
2022/05/18 07:03:58;;;;;;;3.03;2.22;;;19.40;99.90;;;;;;10351163;28;20045;-59
2022/05/18 07:09:04;;;;;;;5.80;2.38;;;19.60;99.90;;;;;;10350772;28;20049;-60
2022/05/18 07:14:06;;;;;;;4.97;2.45;;;19.80;99.90;;;;;;10350357;28;20146;-59
2022/05/18 07:19:08;;;;;;;5.72;2.15;;;19.90;99.90;;;;;;10351922;28;20073;-60
2022/05/18 07:24:10;;;;;;;4.95;2.28;;;20.10;99.90;;;;;;10352123;28;20053;-60
2022/05/18 07:29:12;;;;;;;4.53;2.35;;;20.20;99.90;;;;;;10352184;28;20400;-60
2022/05/18 07:34:14;;;;;;;4.95;2.05;;;20.40;99.90;;;;;;10351743;28;20045;-60
2022/05/18 07:39:15;;;;;;;3.70;2.22;;;20.60;99.90;;;;;;10352177;28;20038;-61
2022/05/18 07:44:17;;;;;;;6.80;2.22;;;20.90;99.90;;;;;;10348997;28;20061;-60
2022/05/18 07:49:19;;;;;;;4.68;1.50;;;21.00;99.90;;;;;;10349497;28;20046;-60
2022/05/18 07:54:21;;;;;;;7.03;2.08;;;21.20;99.90;;;;;;10348760;28;20045;-61
2022/05/18 07:59:22;;;;;;;5.82;2.40;;;21.30;99.90;;;;;;10332605;28;20046;-60
2022/05/18 08:04:24;;;;;;;4.60;1.55;;;21.40;99.90;;;;;;10350808;28;20041;-60
2022/05/18 08:09:26;;;;;;;3.28;1.50;;;21.50;99.90;;;;;;10350411;28;20396;-60
2022/05/18 08:15:05;;;;;;;2.17;1.58;;;21.80;99.90;;;;;;10349365;28;20057;-60
2022/05/18 08:19:52;;;;;;;3.92;1.20;;;21.80;99.70;;;;;;10348797;28;20495;-60
2022/05/18 08:24:54;;;;;;;3.65;1.20;;;22.10;97.10;;;;;;10349595;28;20108;-60
2022/05/18 08:30:01;;;;;;;4.18;1.15;;;22.20;97.00;;;;;;10347111;28;20054;-60
2022/05/18 08:35:03;;;;;;;3.67;1.35;;;22.40;95.70;;;;;;10321117;28;20049;-60
2022/05/18 08:40:07;;;;;;;4.15;1.30;;;22.50;94.10;;;;;;10348808;28;20042;-59
2022/05/18 08:45:10;;;;;;;5.20;1.50;;;22.70;93.20;;;;;;10349378;28;20057;-62
2022/05/18 08:50:16;;;;;;;3.25;1.48;;;23.00;93.10;;;;;;10349826;28;20046;-60
2022/05/18 08:55:37;;;;;;;1.40;1.20;;;23.00;90.30;;;;;;10345684;28;20046;-59
2022/05/18 09:00:49;;;;;;;17.73;1.55;;;23.30;91.40;;;;;;10348733;28;20335;-59
2022/05/18 09:05:56;;;;;;;1.98;1.30;;;23.50;87.70;;;;;;10346205;28;20046;-59
2022/05/18 09:11:19;;;;;;;2.05;1.05;;;23.60;87.50;;;;;;10330419;28;20042;-60
2022/05/18 09:16:40;;;;;;;3.60;1.48;;;23.80;86.00;;;;;;10347051;28;20042;-60
2022/05/18 09:22:13;;;;;;;4.05;1.10;;;24.00;81.90;;;;;;10344707;28;20132;-61
2022/05/18 09:27:40;;;;;;;2.65;1.20;;;24.00;79.10;;;;;;10346611;28;20096;-59
2022/05/18 09:33:14;;;;;;;5.88;1.10;;;24.20;80.10;;;;;;10347714;28;20511;-59
2022/05/18 09:38:36;;;;;;;5.35;1.08;;;24.50;76.90;;;;;;10346470;28;20038;-59
2022/05/18 09:43:59;;;;;;;8.73;1.30;;;24.80;80.30;;;;;;10341499;28;20052;-58
2022/05/18 09:49:10;;;;;;;1.63;1.02;;;25.10;78.00;;;;;;10343449;28;20056;-58
2022/05/18 09:54:12;;;;;;;3.95;1.00;;;25.20;73.80;;;;;;10344456;28;20065;-58
2022/05/18 09:59:20;;;;;;;2.50;1.00;;;25.50;74.20;;;;;;10345066;28;20041;-58
2022/05/18 10:09:48;;;;;;;1.20;0.60;;;25.50;67.30;;;;;;10342660;28;20112;-58
2022/05/18 10:14:58;;;;;;;1.33;0.60;;;25.70;68.80;;;;;;10343256;28;20053;-58
2022/05/18 10:20:21;;;;;;;1.20;0.52;;;25.90;67.80;;;;;;10347278;28;20152;-58
2022/05/18 10:25:26;;;;;;;5.28;1.15;;;26.20;63.90;;;;;;10343575;28;20050;-58
2022/05/18 10:30:33;;;;;;;3.73;0.60;;;26.40;63.40;;;;;;10343082;28;20062;-58
2022/05/18 10:35:54;;;;;;;2.42;0.73;;;26.60;64.10;;;;;;10345508;28;20104;-60
2022/05/18 10:41:03;;;;;;;0.77;0.55;;;26.90;59.80;;;;;;10343216;28;20049;-58
2022/05/18 10:46:16;;;;;;;2.65;0.70;;;27.20;61.00;;;;;;10346972;28;20041;-58
2022/05/18 10:51:39;;;;;;;2.25;0.75;;;27.20;58.50;;;;;;10325415;28;20409;-58
2022/05/18 10:56:41;;;;;;;0.98;0.52;;;27.40;58.40;;;;;;10341179;28;20062;-59
2022/05/18 11:01:50;;;;;;;1.95;0.45;;;27.70;57.70;;;;;;10332935;28;20061;-58
2022/05/18 11:06:54;;;;;;;2.35;0.85;;;28.00;58.30;;;;;;10348194;28;20400;-58
2022/05/18 11:12:06;;;;;;;3.88;0.60;;;28.40;54.80;;;;;;10350685;28;20058;-61
2022/05/18 11:17:34;;;;;;;2.45;0.60;;;28.30;56.70;;;;;;10349591;28;20112;-59
2022/05/18 11:22:55;;;;;;;2.13;0.50;;;28.50;53.50;;;;;;10349247;28;20050;-58
2022/05/18 11:28:22;;;;;;;3.63;0.70;;;28.70;55.80;;;;;;10324870;28;20123;-58
2022/05/18 11:33:39;;;;;;;4.63;0.88;;;29.00;53.60;;;;;;10344314;28;20455;-59
2022/05/18 11:39:02;;;;;;;4.63;0.55;;;28.50;52.90;;;;;;10347366;28;20077;-58
2022/05/18 11:44:08;;;;;;;5.30;0.55;;;29.00;53.70;;;;;;10349538;28;20104;-58
2022/05/18 11:49:20;;;;;;;2.67;0.50;;;28.70;53.30;;;;;;10348866;28;20067;-58
2022/05/18 11:54:45;;;;;;;1.42;0.93;;;29.20;52.50;;;;;;10344034;28;20053;-58
2022/05/18 12:00:14;;;;;;;1.08;0.43;;;29.40;53.20;;;;;;10347477;28;20049;-58
2022/05/18 12:05:43;;;;;;;2.92;0.75;;;29.30;53.30;;;;;;10346201;28;20489;-58
2022/05/18 12:10:50;;;;;;;4.57;0.50;;;29.60;51.20;;;;;;10334420;28;20085;-58
2022/05/18 12:16:11;;;;;;;1.60;0.50;;;29.40;49.40;;;;;;10345091;28;20523;-58
2022/05/18 12:21:19;;;;;;;0.30;0.30;;;30.00;51.10;;;;;;10349743;28;20086;-57
2022/05/18 12:26:21;;;;;;;1.58;0.38;;;29.90;49.10;;;;;;10349487;28;20046;-57
2022/05/18 12:31:26;;;;;;;1.02;0.50;;;29.70;49.40;;;;;;10349258;28;20046;-58
2022/05/18 12:36:40;;;;;;;0.57;0.30;;;29.30;51.10;;;;;;10345201;28;20139;-58
2022/05/18 12:41:45;;;;;;;0.60;0.33;;;29.90;51.10;;;;;;10344174;28;20634;-58
2022/05/18 12:47:02;;;;;;;4.65;0.30;;;30.20;49.30;;;;;;10342050;28;20108;-58
2022/05/18 12:52:36;;;;;;;4.20;0.40;;;30.30;49.60;;;;;;10342435;28;20503;-58
2022/05/18 12:57:40;;;;;;;0.57;0.30;;;30.60;50.40;;;;;;10345175;28;20763;-58
2022/05/18 13:02:56;;;;;;;2.17;0.40;;;30.90;49.00;;;;;;10344755;28;20135;-58
2022/05/18 13:08:17;;;;;;;2.03;0.80;;;30.30;48.00;;;;;;10344000;28;20038;-59
2022/05/18 13:13:24;;;;;;;4.10;0.40;;;29.90;47.70;;;;;;10344745;28;20057;-59
2022/05/18 13:18:30;;;;;;;0.95;0.30;;;29.60;50.10;;;;;;10346460;28;20100;-59
2022/05/18 13:23:32;;;;;;;1.23;0.45;;;29.10;50.80;;;;;;10347218;28;20046;-58
2022/05/18 13:28:35;;;;;;;0.80;0.43;;;29.20;50.20;;;;;;10347159;28;20046;-58
2022/05/18 13:33:55;;;;;;;1.85;0.30;;;29.40;51.60;;;;;;10347950;28;20133;-59
2022/05/18 13:38:57;;;;;;;0.60;0.40;;;29.40;48.90;;;;;;10344925;28;20046;-60
2022/05/18 13:44:01;;;;;;;1.50;0.40;;;29.40;51.20;;;;;;10347562;28;20116;-59
2022/05/18 13:49:19;;;;;;;1.53;0.40;;;29.10;51.70;;;;;;10346111;28;20045;-58
2022/05/18 13:54:25;;;;;;;1.95;0.35;;;29.60;51.60;;;;;;10346525;28;20049;-59
2022/05/18 13:59:31;;;;;;;1.90;0.40;;;29.60;50.50;;;;;;10346562;28;20058;-59
2022/05/18 14:04:38;;;;;;;1.13;0.45;;;29.90;48.90;;;;;;10345123;28;20054;-59
2022/05/18 14:10:02;;;;;;;1.08;0.40;;;30.60;49.40;;;;;;10343910;28;20049;-58
2022/05/18 14:15:20;;;;;;;3.15;0.40;;;30.60;48.90;;;;;;10342165;28;20049;-58
2022/05/18 14:20:36;;;;;;;0.60;0.30;;;30.60;49.50;;;;;;10343359;28;20052;-58
2022/05/18 14:26:02;;;;;;;2.30;0.40;;;30.30;46.80;;;;;;10345745;28;20108;-59
2022/05/18 14:31:05;;;;;;;1.23;0.40;;;30.50;47.50;;;;;;10345713;28;20435;-59
2022/05/18 14:36:38;;;;;;;3.33;0.50;;;30.50;49.00;;;;;;10347621;28;20057;-59
2022/05/18 14:41:45;;;;;;;2.03;0.40;;;30.70;48.60;;;;;;10344626;28;20120;-58
2022/05/18 14:46:47;;;;;;;2.55;0.30;;;30.60;47.50;;;;;;10352076;28;20185;-59
2022/05/18 14:51:58;;;;;;;0.50;0.45;;;30.40;47.10;;;;;;10353239;28;20068;-58
2022/05/18 14:57:10;;;;;;;1.77;0.40;;;30.70;47.90;;;;;;10353868;28;20085;-59
2022/05/18 15:02:14;;;;;;;1.13;0.35;;;31.30;47.10;;;;;;10354903;28;20550;-59
2022/05/18 15:07:19;;;;;;;0.43;0.40;;;31.60;47.80;;;;;;10354173;28;20041;-59
2022/05/18 15:12:39;;;;;;;1.65;0.50;;;32.10;47.80;;;;;;10350463;28;20126;-57
2022/05/18 15:17:45;;;;;;;1.80;0.40;;;31.70;45.40;;;;;;10351855;28;20049;-59
2022/05/18 15:22:52;;;;;;;1.35;0.30;;;32.30;46.30;;;;;;10352684;28;20050;-58
2022/05/18 15:27:54;;;;;;;2.38;0.40;;;33.00;46.10;;;;;;10352183;28;20046;-58
2022/05/18 15:32:56;;;;;;;0.98;0.55;;;33.00;44.50;;;;;;10353096;28;20037;-59
2022/05/18 15:37:57;;;;;;;1.00;0.45;;;33.10;44.30;;;;;;10350547;28;20062;-59
2022/05/18 15:42:59;;;;;;;4.10;0.40;;;33.40;45.00;;;;;;10350973;28;20042;-59
2022/05/18 15:48:02;;;;;;;1.60;0.60;;;33.00;43.40;;;;;;10347214;28;20108;-59
2022/05/18 15:53:06;;;;;;;2.70;0.73;;;33.30;43.10;;;;;;10350873;28;20065;-59
2022/05/18 15:58:07;;;;;;;2.40;0.40;;;33.10;44.50;;;;;;10349959;28;20119;-59
2022/05/18 16:03:09;;;;;;;3.42;0.30;;;33.10;45.20;;;;;;10350408;28;20445;-59
2022/05/18 16:08:11;;;;;;;2.72;0.57;;;33.30;45.10;;;;;;10348298;28;20560;-58
2022/05/18 16:13:13;;;;;;;1.30;0.52;;;32.90;45.20;;;;;;10353287;28;20080;-59
2022/05/18 16:18:15;;;;;;;1.48;0.47;;;32.00;45.50;;;;;;10352293;28;20050;-58
2022/05/18 16:23:18;;;;;;;1.80;0.43;;;31.50;45.40;;;;;;10348170;28;20053;-58
2022/05/18 16:28:25;;;;;;;3.80;0.60;;;31.10;47.20;;;;;;10347906;28;20104;-59
2022/05/18 16:33:29;;;;;;;1.70;0.50;;;31.10;48.50;;;;;;10350831;28;20081;-59
2022/05/18 16:38:30;;;;;;;2.20;0.53;;;30.70;48.70;;;;;;10349345;28;20128;-59
2022/05/18 16:43:32;;;;;;;0.80;0.52;;;30.90;48.40;;;;;;10347335;28;20120;-58
2022/05/18 16:48:34;;;;;;;1.30;0.40;;;31.30;48.60;;;;;;10349308;28;20054;-59
2022/05/18 16:53:36;;;;;;;2.63;0.57;;;31.50;49.00;;;;;;10347083;28;20069;-60
2022/05/18 16:58:38;;;;;;;1.75;0.50;;;31.60;48.40;;;;;;10346135;28;20057;-60
2022/05/18 17:03:40;;;;;;;1.38;0.35;;;31.90;47.90;;;;;;10348176;28;20053;-61
2022/05/18 17:08:47;;;;;;;0.90;0.50;;;32.00;48.40;;;;;;10347362;28;20061;-61
2022/05/18 17:13:51;;;;;;;2.00;0.70;;;32.00;48.40;;;;;;10347333;28;20062;-61
2022/05/18 17:18:53;;;;;;;4.70;1.75;;;31.90;49.50;;;;;;10345878;28;20050;-61
2022/05/18 17:23:57;;;;;;;1.95;1.08;;;31.60;48.40;;;;;;10343302;28;20384;-61
2022/05/18 17:29:05;;;;;;;4.63;0.90;;;31.40;48.90;;;;;;10345055;28;20053;-62
2022/05/18 17:34:07;;;;;;;3.92;0.52;;;31.20;49.70;;;;;;10347228;28;20054;-61
2022/05/18 17:39:08;;;;;;;2.53;0.90;;;30.80;50.30;;;;;;10351022;28;20107;-62
2022/05/18 17:44:10;;;;;;;1.42;0.50;;;30.30;50.70;;;;;;10349577;28;20492;-62
2022/05/18 17:49:12;;;;;;;2.70;1.17;;;30.10;50.50;;;;;;10347726;28;20042;-61
2022/05/18 17:54:15;;;;;;;3.25;1.10;;;29.90;51.80;;;;;;10349038;28;20056;-61
2022/05/18 17:59:17;;;;;;;1.88;0.77;;;29.60;52.40;;;;;;10349687;28;20054;-61
2022/05/18 18:04:20;;;;;;;5.55;0.70;;;29.10;52.60;;;;;;10346392;28;20057;-61
2022/05/18 18:09:22;;;;;;;4.10;0.90;;;28.80;53.80;;;;;;10354746;28;20050;-62
2022/05/18 18:14:24;;;;;;;1.67;0.68;;;28.30;55.20;;;;;;10357159;28;20054;-63
2022/05/18 18:19:28;;;;;;;1.70;0.40;;;28.00;56.20;;;;;;10358869;28;20120;-62
2022/05/18 18:24:31;;;;;;;0.70;0.50;;;27.60;56.40;;;;;;10357118;28;20436;-61
2022/05/18 18:29:33;;;;;;;2.92;0.73;;;27.30;57.40;;;;;;10355483;28;20065;-61
2022/05/18 18:34:35;;;;;;;0.80;0.43;;;27.00;58.40;;;;;;10353368;28;20062;-61
2022/05/18 18:39:47;;;;;;;1.58;0.52;;;26.80;58.60;;;;;;10358077;28;20107;-62
2022/05/18 18:44:48;;;;;;;3.38;0.75;;;26.60;60.10;;;;;;10352803;28;20704;-62
2022/05/18 18:49:50;;;;;;;1.77;0.60;;;26.30;59.80;;;;;;10335608;28;20460;-62
2022/05/18 18:55:08;;;;;;;5.32;0.63;;;26.00;60.80;;;;;;10355593;28;20054;-62
2022/05/18 19:00:15;;;;;;;3.30;1.00;;;25.80;62.00;;;;;;10355096;28;20121;-62
2022/05/18 19:05:20;;;;;;;3.60;0.73;;;25.60;62.60;;;;;;10356477;28;20050;-62
2022/05/18 19:10:26;;;;;;;3.33;0.60;;;25.40;63.60;;;;;;10351581;28;20053;-64
2022/05/18 19:15:31;;;;;;;5.68;1.27;;;25.20;65.60;;;;;;10355441;28;20058;-62
2022/05/18 19:20:39;;;;;;;4.45;1.23;;;25.00;67.30;;;;;;10356857;28;20057;-62
2022/05/18 19:25:43;;;;;;;2.80;1.02;;;24.80;67.90;;;;;;10338857;28;21377;-62
2022/05/18 19:30:45;;;;;;;1.73;0.80;;;24.60;69.00;;;;;;10354946;28;20050;-64
2022/05/18 19:35:47;;;;;;;2.78;0.85;;;24.40;69.40;;;;;;10354888;28;20058;-63
2022/05/18 19:40:49;;;;;;;2.25;0.70;;;24.20;70.10;;;;;;10352433;28;20045;-58
2022/05/18 19:45:53;;;;;;;2.67;0.77;;;24.00;71.80;;;;;;10354215;28;20058;-58
2022/05/18 19:50:56;;;;;;;6.80;1.17;;;23.70;73.90;;;;;;10352959;28;20133;-58
2022/05/18 19:55:58;;;;;;;1.67;0.80;;;23.40;75.00;;;;;;10352567;28;20057;-59
2022/05/18 20:01:01;;;;;;;2.08;0.60;;;23.10;76.40;;;;;;10352290;28;20049;-58
2022/05/18 20:06:03;;;;;;;2.58;0.82;;;22.80;77.70;;;;;;10353382;28;20042;-58
2022/05/18 20:11:05;;;;;;;0.98;0.60;;;22.70;78.50;;;;;;10349481;28;20045;-59
2022/05/18 20:16:07;;;;;;;1.90;0.60;;;22.40;79.40;;;;;;10350821;28;20053;-60
2022/05/18 20:21:09;;;;;;;2.58;0.90;;;22.30;81.00;;;;;;10352377;28;20181;-59
2022/05/18 20:26:26;;;;;;;4.05;0.95;;;22.20;83.30;;;;;;10352005;28;20038;-58
2022/05/18 20:31:28;;;;;;;1.35;0.80;;;22.00;84.10;;;;;;10350365;28;20507;-59
2022/05/18 20:36:31;;;;;;;4.55;0.68;;;21.90;85.40;;;;;;10349833;28;20085;-58
2022/05/18 20:41:37;;;;;;;2.25;0.80;;;21.70;86.70;;;;;;10346709;28;20104;-58
2022/05/18 20:46:39;;;;;;;1.80;0.75;;;21.60;89.20;;;;;;10349952;28;20133;-59
2022/05/18 20:51:41;;;;;;;5.13;0.90;;;21.50;90.30;;;;;;10346741;28;20050;-58
2022/05/18 20:56:43;;;;;;;3.85;0.90;;;21.30;91.30;;;;;;10346977;28;20561;-59
2022/05/18 21:01:45;;;;;;;3.20;0.90;;;21.20;92.40;;;;;;10348024;28;20510;-58
2022/05/18 21:06:47;;;;;;;4.30;1.20;;;21.20;93.50;;;;;;10342512;28;20114;-59
2022/05/18 21:11:48;;;;;;;2.75;0.80;;;21.00;94.80;;;;;;10345773;28;20070;-58
2022/05/18 21:16:53;;;;;;;4.32;0.93;;;20.90;95.90;;;;;;10347250;28;20052;-59
2022/05/18 21:21:55;;;;;;;2.03;0.80;;;20.80;97.50;;;;;;10347136;28;20046;-58
2022/05/18 21:26:59;;;;;;;2.92;0.98;;;20.70;98.10;;;;;;10348462;28;20103;-58
2022/05/18 21:32:02;;;;;;;4.35;0.70;;;20.60;99.10;;;;;;10347222;28;20082;-59
2022/05/18 21:37:04;;;;;;;3.58;1.23;;;20.50;99.10;;;;;;10347656;28;20104;-58
2022/05/18 21:42:10;;;;;;;2.53;1.17;;;20.40;99.90;;;;;;10347617;28;20911;-58
2022/05/18 21:47:13;;;;;;;4.00;1.30;;;20.30;99.90;;;;;;10348166;28;20053;-59
2022/05/18 21:52:16;;;;;;;3.65;1.13;;;20.20;99.90;;;;;;10348233;28;20045;-59
2022/05/18 21:57:20;;;;;;;3.47;0.90;;;20.00;99.90;;;;;;10347600;28;20041;-59
2022/05/18 22:02:27;;;;;;;4.90;1.23;;;19.90;99.90;;;;;;10345176;28;20096;-59
2022/05/18 22:07:29;;;;;;;5.03;2.15;;;19.80;99.90;;;;;;10345102;28;20045;-60
2022/05/18 22:12:31;;;;;;;3.63;1.08;;;19.70;99.90;;;;;;10330279;28;20054;-58
2022/05/18 22:17:32;;;;;;;4.45;1.20;;;19.60;99.90;;;;;;10345856;28;20066;-58
2022/05/18 22:22:34;;;;;;;2.00;1.10;;;19.50;99.90;;;;;;10345786;28;20085;-58
2022/05/18 22:27:36;;;;;;;3.28;1.20;;;19.50;99.90;;;;;;10342765;28;20104;-58
2022/05/18 22:32:38;;;;;;;2.95;1.55;;;19.30;99.90;;;;;;10345934;28;20042;-58
2022/05/18 22:37:41;;;;;;;3.97;1.27;;;19.20;99.90;;;;;;10343582;28;20054;-58
2022/05/18 22:42:45;;;;;;;3.83;1.30;;;19.20;99.90;;;;;;10343037;28;20045;-58
2022/05/18 22:47:47;;;;;;;1.70;0.93;;;19.00;99.90;;;;;;10345079;28;20701;-57
2022/05/18 22:52:50;;;;;;;3.10;0.98;;;18.90;99.90;;;;;;10328958;28;20053;-58
2022/05/18 22:57:52;;;;;;;4.70;1.38;;;18.80;99.90;;;;;;10352530;28;20447;-58
2022/05/18 23:02:54;;;;;;;4.50;1.13;;;18.80;99.90;;;;;;10353998;28;20100;-58
2022/05/18 23:07:56;;;;;;;3.95;1.15;;;18.80;99.90;;;;;;10332061;28;20042;-58
2022/05/18 23:12:57;;;;;;;4.55;1.23;;;18.80;99.90;;;;;;10316703;28;20108;-58
2022/05/18 23:18:00;;;;;;;3.00;1.25;;;18.70;99.90;;;;;;10313314;28;20050;-58
2022/05/18 23:28:23;;;;;;;3.55;1.40;;;18.40;99.90;;;;;;10310444;28;20096;-58
2022/05/18 23:33:29;;;;;;;2.10;1.00;;;18.40;99.90;;;;;;10299684;28;20049;-58
2022/05/18 23:38:31;;;;;;;2.60;1.55;;;18.30;99.90;;;;;;10306843;28;20096;-59
2022/05/18 23:43:32;;;;;;;5.03;1.50;;;18.40;99.90;;;;;;10307625;28;20448;-58
2022/05/18 23:48:35;;;;;;;4.25;1.70;;;18.30;99.90;;;;;;10304402;28;20080;-59
2022/05/18 23:53:37;;;;;;;2.65;1.55;;;18.30;99.90;;;;;;10311523;28;20086;-58
2022/05/18 23:58:43;;;;;;;4.10;1.83;;;18.20;99.90;;;;;;10302609;28;20054;-59
